Time;durP1;ratioP1;P1;durP2;ratioP2;P2;SDS_P1;SDS_P2;PMS_P1;PMS_P2;Temp;Humidity;BMP_temperature;BMP_pressure;BME280_temperature;BME280_humidity;BME280_pressure;Samples;Min_cycle;Max_cycle;Signal;HPM_P1;HPM_P2
2022/12/15 00:39:23;;;;;;;69.87;31.00;;;-6.20;99.90;;;;;;4961756;28;20199;-58
2022/12/15 00:41:52;;;;;;;61.33;28.30;;;-6.20;99.90;;;;;;4968657;28;20204;-58
2022/12/15 00:44:22;;;;;;;64.17;28.83;;;-6.20;99.90;;;;;;4966790;28;20192;-58
2022/12/15 00:46:53;;;;;;;67.70;29.67;;;-6.30;99.90;;;;;;4969360;28;20211;-57
2022/12/15 01:20:17;;;;;;;78.23;31.80;;;-6.30;99.90;;;;;;4962542;28;20681;-58
2022/12/15 01:22:46;;;;;;;70.93;31.20;;;-6.30;99.90;;;;;;4967125;28;20230;-57
2022/12/15 01:25:16;;;;;;;75.60;31.30;;;-6.40;99.90;;;;;;4966904;28;20709;-58
2022/12/15 01:27:45;;;;;;;82.03;31.53;;;-6.40;99.90;;;;;;4966733;28;20204;-57
2022/12/15 01:30:16;;;;;;;71.00;29.80;;;-6.30;99.90;;;;;;4958382;28;20189;-57
2022/12/15 01:32:44;;;;;;;73.73;29.73;;;-6.30;99.90;;;;;;4966064;28;20218;-57
2022/12/15 01:35:16;;;;;;;68.03;30.30;;;-6.30;99.90;;;;;;4964037;28;20257;-57
2022/12/15 01:37:46;;;;;;;75.87;31.80;;;-6.20;99.90;;;;;;4961190;28;20203;-57
2022/12/15 01:43:11;;;;;;;83.57;31.40;;;-6.30;99.90;;;;;;4958361;28;20227;-58
2022/12/15 01:45:48;;;;;;;75.63;30.43;;;-6.30;99.90;;;;;;4967550;28;20225;-58
2022/12/15 01:48:24;;;;;;;74.83;32.13;;;-6.40;99.90;;;;;;4968126;28;20658;-57
2022/12/15 01:51:04;;;;;;;77.30;30.20;;;-6.40;99.90;;;;;;4969491;28;20269;-58
2022/12/15 01:53:36;;;;;;;81.47;30.17;;;-6.40;99.90;;;;;;4967925;28;20202;-58
2022/12/15 01:56:08;;;;;;;73.70;30.87;;;-6.50;99.90;;;;;;4969713;28;20196;-57
2022/12/15 01:58:37;;;;;;;84.00;31.50;;;-6.50;99.90;;;;;;4964772;28;20188;-57
2022/12/15 02:01:07;;;;;;;80.23;30.17;;;-6.40;99.90;;;;;;4981515;28;20204;-58
2022/12/15 02:03:37;;;;;;;71.03;29.63;;;-6.40;99.90;;;;;;4994179;28;20196;-58
2022/12/15 02:06:09;;;;;;;76.33;31.10;;;-6.40;99.90;;;;;;4960913;28;20206;-57
2022/12/15 02:08:38;;;;;;;73.70;29.83;;;-6.40;99.90;;;;;;4966050;28;20215;-57
2022/12/15 02:11:32;;;;;;;82.37;32.00;;;-6.50;99.90;;;;;;4965329;28;20231;-58
2022/12/15 02:14:02;;;;;;;79.90;29.47;;;-6.50;99.90;;;;;;4970376;28;20226;-57
2022/12/15 02:16:43;;;;;;;73.13;30.13;;;-6.40;99.90;;;;;;4964289;28;20250;-58
2022/12/15 02:19:33;;;;;;;68.23;29.13;;;-6.40;99.90;;;;;;4963110;28;20210;-57
2022/12/15 02:22:17;;;;;;;72.70;29.20;;;-6.30;99.90;;;;;;4966768;28;20219;-57
2022/12/15 02:25:07;;;;;;;84.43;38.27;;;-6.30;99.90;;;;;;4994261;28;20440;-58
2022/12/15 02:27:52;;;;;;;74.40;31.23;;;-6.30;99.90;;;;;;4954573;28;20226;-58
2022/12/15 02:30:29;;;;;;;72.17;30.97;;;-6.20;99.90;;;;;;4962572;28;20211;-57
2022/12/15 02:33:08;;;;;;;75.10;30.93;;;-6.20;99.90;;;;;;4965418;28;20203;-58
2022/12/15 02:35:47;;;;;;;76.00;32.47;;;-6.10;99.90;;;;;;4962248;28;20226;-58
2022/12/15 02:38:27;;;;;;;70.77;30.13;;;-6.10;99.90;;;;;;4986793;28;20183;-58
2022/12/15 02:40:58;;;;;;;71.83;29.00;;;-6.00;99.90;;;;;;4976324;28;20207;-57
2022/12/15 02:43:29;;;;;;;71.07;29.60;;;-6.00;99.90;;;;;;4961970;28;20199;-58
2022/12/15 02:46:13;;;;;;;75.03;28.60;;;-6.10;99.90;;;;;;4963158;28;20211;-57
2022/12/15 02:48:54;;;;;;;65.67;28.30;;;-6.20;99.90;;;;;;4966087;28;20674;-58
2022/12/15 02:51:35;;;;;;;77.03;30.83;;;-6.20;99.90;;;;;;4962318;28;20215;-58
2022/12/15 02:54:29;;;;;;;80.60;32.23;;;-6.30;99.90;;;;;;4965588;28;20195;-57
2022/12/15 02:57:04;;;;;;;76.47;30.23;;;-6.30;99.90;;;;;;4960851;28;20719;-58
2022/12/15 02:59:41;;;;;;;75.00;30.30;;;-6.40;99.90;;;;;;4964820;28;20725;-57
2022/12/15 03:02:13;;;;;;;73.07;30.00;;;-6.50;99.90;;;;;;4961529;28;20203;-57
2022/12/15 03:04:44;;;;;;;66.77;27.47;;;-6.50;99.90;;;;;;4965327;28;20249;-58
2022/12/15 03:07:14;;;;;;;68.13;27.73;;;-6.50;99.90;;;;;;4969254;28;20301;-58
2022/12/15 03:09:42;;;;;;;58.40;25.67;;;-6.50;99.90;;;;;;4967335;28;20215;-58
2022/12/15 03:12:11;;;;;;;63.80;26.40;;;-6.50;99.90;;;;;;4965995;28;20203;-58
2022/12/15 03:14:40;;;;;;;69.13;27.20;;;-6.50;99.90;;;;;;4965594;28;20291;-58
2022/12/15 03:17:10;;;;;;;64.78;34.00;;;-6.60;99.90;;;;;;4965577;28;20501;-57
2022/12/15 03:19:38;;;;;;;75.23;30.17;;;-6.60;99.90;;;;;;4970095;28;20200;-58
2022/12/15 03:22:07;;;;;;;62.07;26.93;;;-6.70;99.90;;;;;;4968126;28;20227;-57
2022/12/15 03:24:37;;;;;;;64.80;27.67;;;-6.70;99.90;;;;;;4970189;28;20566;-57
2022/12/15 03:27:06;;;;;;;65.20;26.77;;;-6.80;99.90;;;;;;4975323;28;20642;-58
2022/12/15 03:29:34;;;;;;;67.07;27.20;;;-6.80;99.90;;;;;;4995194;28;20203;-57
2022/12/15 03:32:02;;;;;;;62.83;26.43;;;-6.70;99.90;;;;;;4967178;28;20634;-57
2022/12/15 03:34:32;;;;;;;72.67;29.77;;;-6.60;99.90;;;;;;4959599;28;20811;-57
2022/12/15 03:37:01;;;;;;;73.87;29.40;;;-6.50;99.90;;;;;;4964410;28;20196;-57
2022/12/15 03:39:29;;;;;;;68.63;27.43;;;-6.50;99.90;;;;;;4959011;28;20550;-57
2022/12/15 03:41:58;;;;;;;70.53;29.20;;;-6.40;99.90;;;;;;4968246;28;20199;-57
2022/12/15 03:44:26;;;;;;;77.23;30.83;;;-6.40;99.90;;;;;;4971368;28;20214;-58
2022/12/15 03:46:55;;;;;;;71.80;29.70;;;-6.30;99.90;;;;;;4978098;28;20199;-57
2022/12/15 03:49:31;;;;;;;72.83;29.97;;;-6.30;99.90;;;;;;4969407;28;20302;-57
2022/12/15 03:52:00;;;;;;;72.00;29.77;;;-6.30;99.90;;;;;;4967516;28;20208;-57
2022/12/15 03:54:28;;;;;;;68.90;30.27;;;-6.30;99.90;;;;;;4968446;28;20196;-57
2022/12/15 03:56:56;;;;;;;75.10;31.97;;;-6.40;99.90;;;;;;4968506;28;20188;-58
2022/12/15 03:59:25;;;;;;;67.77;29.37;;;-6.30;99.90;;;;;;4966773;28;20195;-57
2022/12/15 04:01:53;;;;;;;68.80;29.30;;;-6.30;99.90;;;;;;4960168;28;20204;-58
2022/12/15 04:04:22;;;;;;;70.00;29.67;;;-6.40;99.90;;;;;;4964400;28;20842;-57
2022/12/15 04:06:51;;;;;;;61.57;28.00;;;-6.50;99.90;;;;;;4966378;28;20629;-57
2022/12/15 04:09:19;;;;;;;72.60;31.00;;;-6.50;99.90;;;;;;4968091;28;20227;-58
2022/12/15 04:11:48;;;;;;;72.93;30.80;;;-6.50;99.90;;;;;;4966577;28;20196;-57
2022/12/15 04:14:16;;;;;;;71.07;31.70;;;-6.50;99.90;;;;;;4969563;28;20199;-58
2022/12/15 04:16:44;;;;;;;73.43;30.80;;;-6.50;99.90;;;;;;4966227;28;20227;-58
2022/12/15 04:22:03;;;;;;;71.20;30.03;;;-6.50;99.90;;;;;;4965463;28;20219;-57
2022/12/15 05:34:01;;;;;;;82.90;30.87;;;-6.50;99.90;;;;;;4956357;28;20196;-57
2022/12/15 05:36:33;;;;;;;76.63;31.10;;;-6.60;99.90;;;;;;5049704;28;20223;-57
2022/12/15 05:39:01;;;;;;;74.17;31.10;;;-6.70;99.90;;;;;;4961862;28;20196;-57
2022/12/15 05:41:29;;;;;;;76.53;30.70;;;-6.70;99.90;;;;;;4963311;28;20199;-57
2022/12/15 05:43:59;;;;;;;81.70;31.43;;;-6.80;99.90;;;;;;4960936;28;20542;-57
2022/12/15 05:46:27;;;;;;;75.90;30.60;;;-6.80;99.90;;;;;;4968440;28;20207;-57
2022/12/15 05:48:55;;;;;;;78.67;31.93;;;-6.80;99.90;;;;;;4965332;28;20216;-57
2022/12/15 05:51:24;;;;;;;73.67;30.33;;;-6.80;99.90;;;;;;4977610;28;20196;-57
2022/12/15 05:53:52;;;;;;;75.30;30.67;;;-6.70;99.90;;;;;;4975515;28;20197;-57
2022/12/15 05:56:20;;;;;;;71.77;31.27;;;-6.60;99.90;;;;;;4959596;28;20550;-57
2022/12/15 05:58:51;;;;;;;71.87;28.53;;;-6.60;99.90;;;;;;4967420;28;20195;-57
2022/12/15 06:01:21;;;;;;;71.03;30.93;;;-6.70;99.90;;;;;;4994263;28;20209;-57
2022/12/15 06:03:49;;;;;;;75.57;30.80;;;-6.60;99.90;;;;;;4962161;28;20198;-57
2022/12/15 06:06:18;;;;;;;69.23;29.80;;;-6.70;99.90;;;;;;4967545;28;20253;-57
2022/12/15 06:08:47;;;;;;;78.33;31.20;;;-6.70;99.90;;;;;;4996924;28;20695;-58
2022/12/15 06:11:18;;;;;;;71.20;29.70;;;-6.80;99.90;;;;;;4964002;28;20282;-57
2022/12/15 06:13:47;;;;;;;69.93;29.13;;;-6.80;99.90;;;;;;4960720;28;20195;-58
2022/12/15 06:16:17;;;;;;;77.47;29.27;;;-6.80;99.90;;;;;;4966705;28;20685;-58
2022/12/15 06:18:49;;;;;;;81.03;34.20;;;-6.80;99.90;;;;;;4960646;28;20199;-58
2022/12/15 06:21:20;;;;;;;79.23;32.83;;;-6.80;99.90;;;;;;4960434;28;20672;-57
2022/12/15 06:23:48;;;;;;;73.60;30.13;;;-6.70;99.90;;;;;;4964938;28;20667;-57
2022/12/15 06:26:19;;;;;;;68.50;29.77;;;-6.60;99.90;;;;;;4965881;28;20219;-57
2022/12/15 06:28:48;;;;;;;83.87;33.47;;;-6.40;99.90;;;;;;4971852;28;20199;-57
2022/12/15 06:31:21;;;;;;;77.80;32.93;;;-6.30;99.90;;;;;;4960071;28;20188;-57
2022/12/15 06:33:52;;;;;;;87.67;32.63;;;-6.20;99.90;;;;;;4964979;28;20204;-57
2022/12/15 06:36:29;;;;;;;70.17;30.83;;;-6.20;99.90;;;;;;4962026;28;20191;-57
2022/12/15 06:38:59;;;;;;;73.33;30.60;;;-6.20;99.90;;;;;;4961833;28;20302;-58
2022/12/15 06:41:29;;;;;;;80.00;32.30;;;-6.30;99.90;;;;;;4970351;28;20290;-58
2022/12/15 06:43:58;;;;;;;72.60;30.63;;;-6.30;99.90;;;;;;4963861;28;20265;-57
2022/12/15 06:46:28;;;;;;;72.53;29.97;;;-6.30;99.90;;;;;;4966908;28;20203;-57
2022/12/15 06:49:01;;;;;;;64.57;28.57;;;-6.40;99.90;;;;;;4961848;28;20206;-57
2022/12/15 06:51:29;;;;;;;69.00;29.50;;;-6.30;99.90;;;;;;4958022;28;20203;-57
2022/12/15 06:53:57;;;;;;;71.43;29.40;;;-6.20;99.90;;;;;;4973710;28;20195;-57
2022/12/15 06:56:28;;;;;;;74.53;29.30;;;-6.30;99.90;;;;;;4961943;28;20771;-57
2022/12/15 06:59:03;;;;;;;73.77;29.73;;;-6.30;99.90;;;;;;4961819;28;20244;-57
2022/12/15 07:01:32;;;;;;;71.87;30.07;;;-6.30;99.90;;;;;;4962525;28;20208;-57
2022/12/15 07:04:04;;;;;;;73.17;29.37;;;-6.40;99.90;;;;;;4964180;28;20187;-58
2022/12/15 07:06:36;;;;;;;73.00;30.43;;;-6.40;99.90;;;;;;4965676;28;20207;-57
2022/12/15 07:09:09;;;;;;;73.33;31.93;;;-6.30;99.90;;;;;;4969716;28;20199;-58
2022/12/15 07:11:37;;;;;;;70.90;30.77;;;-6.20;99.90;;;;;;4955255;28;20879;-57
2022/12/15 07:14:06;;;;;;;81.73;33.00;;;-6.20;99.90;;;;;;4975873;28;20211;-57
2022/12/15 07:16:34;;;;;;;82.83;35.53;;;-6.20;99.90;;;;;;4974012;28;20237;-58
2022/12/15 07:19:04;;;;;;;85.93;33.53;;;-6.20;99.90;;;;;;4961760;28;20206;-58
2022/12/15 07:21:32;;;;;;;81.80;34.17;;;-6.20;99.90;;;;;;4970824;28;20588;-57
2022/12/15 07:24:00;;;;;;;88.20;36.03;;;-6.30;99.90;;;;;;4969400;28;20207;-58
2022/12/15 07:26:30;;;;;;;76.83;33.50;;;-6.30;99.90;;;;;;4978546;28;20260;-57
2022/12/15 07:28:58;;;;;;;77.33;33.37;;;-6.40;99.90;;;;;;4973156;28;20705;-57
2022/12/15 07:31:27;;;;;;;76.10;31.60;;;-6.40;99.90;;;;;;4990980;28;20223;-58
2022/12/15 07:33:56;;;;;;;85.83;33.97;;;-6.40;99.90;;;;;;4962818;28;20212;-58
2022/12/15 07:36:27;;;;;;;79.27;34.87;;;-6.40;99.90;;;;;;4962605;28;20207;-57
2022/12/15 07:39:00;;;;;;;83.17;34.73;;;-6.30;99.90;;;;;;4964234;28;20214;-57
2022/12/15 07:41:29;;;;;;;87.23;34.90;;;-6.30;99.90;;;;;;4956108;28;20653;-57
2022/12/15 07:43:57;;;;;;;71.87;31.33;;;-6.30;99.90;;;;;;4963583;28;20673;-57
2022/12/15 07:46:29;;;;;;;71.23;32.33;;;-6.40;99.90;;;;;;4970262;28;20200;-57
2022/12/15 07:48:58;;;;;;;76.13;31.17;;;-6.40;99.90;;;;;;4995515;28;20225;-57
2022/12/15 07:51:27;;;;;;;70.77;31.10;;;-6.40;99.90;;;;;;4968312;28;20222;-57
2022/12/15 07:53:56;;;;;;;78.73;32.03;;;-6.40;99.90;;;;;;4972020;28;20208;-57
2022/12/15 07:56:25;;;;;;;92.30;33.60;;;-6.40;99.90;;;;;;4967032;28;20204;-60
2022/12/15 07:58:53;;;;;;;79.30;31.43;;;-6.40;99.90;;;;;;4968585;28;20191;-57
2022/12/15 08:01:21;;;;;;;78.53;32.60;;;-6.40;99.90;;;;;;4965199;28;20207;-58
2022/12/15 08:03:50;;;;;;;83.43;33.27;;;-6.40;99.90;;;;;;4966452;28;20306;-57
2022/12/15 08:06:18;;;;;;;82.10;33.33;;;-6.40;99.90;;;;;;4971784;28;20203;-58
2022/12/15 08:08:48;;;;;;;94.63;35.00;;;-6.30;99.90;;;;;;4969093;28;20198;-57
2022/12/15 08:11:19;;;;;;;87.30;34.63;;;-6.30;99.90;;;;;;4964914;28;20227;-57
2022/12/15 08:13:48;;;;;;;84.80;34.20;;;-6.30;99.90;;;;;;4966980;28;20204;-57
2022/12/15 08:16:33;;;;;;;82.77;33.80;;;-6.20;99.90;;;;;;4970707;28;20227;-57
2022/12/15 08:19:02;;;;;;;79.40;32.63;;;-6.20;99.90;;;;;;4964077;28;20804;-57
2022/12/15 08:21:31;;;;;;;88.17;33.20;;;-6.20;99.90;;;;;;4965710;28;20694;-58
2022/12/15 08:24:00;;;;;;;82.73;34.87;;;-6.20;99.90;;;;;;4968083;28;20204;-57
2022/12/15 08:26:30;;;;;;;93.90;36.50;;;-6.20;99.90;;;;;;4970107;28;20273;-56
2022/12/15 08:29:03;;;;;;;84.17;33.63;;;-6.20;99.90;;;;;;4965083;28;20212;-58
2022/12/15 08:31:52;;;;;;;75.07;32.40;;;-6.10;99.90;;;;;;4963029;28;20227;-57
2022/12/15 08:34:21;;;;;;;86.93;33.70;;;-6.10;99.90;;;;;;4961097;28;20303;-57
2022/12/15 08:36:49;;;;;;;77.33;33.77;;;-5.90;99.90;;;;;;4961682;28;20200;-57
2022/12/15 08:39:20;;;;;;;75.00;33.43;;;-5.80;99.90;;;;;;4963649;28;20204;-58
2022/12/15 08:41:51;;;;;;;76.20;33.23;;;-5.80;99.90;;;;;;4966733;28;20204;-57
2022/12/15 08:44:20;;;;;;;89.17;36.00;;;-5.70;99.90;;;;;;4965519;28;20203;-57
2022/12/15 08:46:50;;;;;;;78.50;34.83;;;-5.60;99.90;;;;;;4971272;28;20194;-57
2022/12/15 08:49:18;;;;;;;85.00;35.63;;;-5.60;99.90;;;;;;4964736;28;20211;-57
2022/12/15 08:51:50;;;;;;;79.33;35.33;;;-5.50;99.90;;;;;;4969172;28;20247;-57
2022/12/15 08:54:20;;;;;;;81.30;36.13;;;-5.40;99.90;;;;;;4964386;28;20662;-57
2022/12/15 08:56:49;;;;;;;114.33;46.43;;;-5.40;99.90;;;;;;4974454;28;20208;-58
2022/12/15 08:59:18;;;;;;;115.30;49.70;;;-5.40;99.90;;;;;;4968528;28;20200;-57
2022/12/15 09:01:47;;;;;;;126.90;54.17;;;-5.30;99.90;;;;;;4971534;28;20195;-57
2022/12/15 09:04:16;;;;;;;109.87;48.70;;;-5.20;99.90;;;;;;4977209;28;20201;-58
2022/12/15 09:06:45;;;;;;;97.53;45.15;;;-5.10;99.90;;;;;;4967023;28;20474;-58
2022/12/15 09:09:20;;;;;;;83.03;38.23;;;-5.00;99.90;;;;;;4993382;28;20219;-57
2022/12/15 09:11:48;;;;;;;84.53;36.63;;;-4.90;99.90;;;;;;4957869;28;20212;-57
2022/12/15 09:14:18;;;;;;;87.73;37.20;;;-4.80;99.90;;;;;;4966112;28;20195;-58
2022/12/15 09:16:56;;;;;;;89.13;40.87;;;-4.70;99.90;;;;;;4964103;28;20238;-57
2022/12/15 09:19:25;;;;;;;79.83;36.37;;;-4.50;99.90;;;;;;4985502;28;20562;-57
2022/12/15 09:21:53;;;;;;;84.77;35.60;;;-4.40;99.90;;;;;;4965409;28;20196;-58
2022/12/15 09:24:23;;;;;;;85.03;36.17;;;-4.20;99.90;;;;;;4967024;28;20199;-58
2022/12/15 09:27:03;;;;;;;91.23;40.67;;;-4.00;99.90;;;;;;4967805;28;20277;-58
2022/12/15 09:29:31;;;;;;;80.57;35.37;;;-3.80;99.90;;;;;;4961373;28;20208;-57
2022/12/15 09:32:00;;;;;;;91.03;36.80;;;-3.70;99.90;;;;;;4988785;28;20357;-58
2022/12/15 09:34:29;;;;;;;79.57;36.27;;;-3.60;99.90;;;;;;4964409;28;20216;-58
2022/12/15 09:36:57;;;;;;;82.80;35.67;;;-3.40;99.90;;;;;;4964631;28;20231;-58
2022/12/15 09:39:27;;;;;;;82.27;35.73;;;-3.40;99.90;;;;;;4965985;28;20274;-58
2022/12/15 09:41:59;;;;;;;89.20;38.37;;;-3.20;99.90;;;;;;4968155;28;20199;-58
2022/12/15 09:44:30;;;;;;;88.17;38.87;;;-3.20;99.90;;;;;;4997499;28;20210;-58
2022/12/15 09:47:08;;;;;;;74.93;35.53;;;-3.00;99.90;;;;;;4966299;28;20195;-58
2022/12/15 09:49:49;;;;;;;76.23;33.10;;;-2.70;99.90;;;;;;4982334;28;20203;-58
2022/12/15 09:52:22;;;;;;;77.63;34.67;;;-2.30;99.90;;;;;;4970783;28;20223;-58
2022/12/15 09:54:52;;;;;;;74.83;35.33;;;-2.00;99.90;;;;;;4968120;28;20540;-58
2022/12/15 09:57:37;;;;;;;81.43;38.17;;;-1.70;99.90;;;;;;4962381;28;20597;-58
2022/12/15 10:00:20;;;;;;;67.87;32.00;;;-1.40;99.90;;;;;;4968844;28;20613;-58
2022/12/15 10:03:15;;;;;;;68.60;33.13;;;-1.00;99.90;;;;;;4964681;28;20275;-58
2022/12/15 10:05:54;;;;;;;66.57;31.50;;;-0.70;99.90;;;;;;4962994;28;20234;-58
2022/12/15 10:08:45;;;;;;;72.27;35.87;;;-0.50;99.90;;;;;;4965922;28;20658;-58
2022/12/15 10:11:26;;;;;;;65.27;32.20;;;-0.20;99.90;;;;;;4979291;28;20222;-58
2022/12/15 10:14:01;;;;;;;67.03;30.73;;;-0.10;99.90;;;;;;4966467;28;20207;-58
2022/12/15 10:16:36;;;;;;;62.50;29.67;;;-0.20;99.90;;;;;;4969015;28;20603;-59
2022/12/15 10:19:11;;;;;;;61.13;31.73;;;-0.10;99.90;;;;;;4964774;28;20661;-58
2022/12/15 10:21:39;;;;;;;80.47;41.97;;;0.10;99.90;;;;;;4961281;28;20297;-59
2022/12/15 10:24:16;;;;;;;61.30;30.80;;;0.20;99.90;;;;;;4962614;28;20756;-58
2022/12/15 10:27:20;;;;;;;55.77;28.63;;;0.30;99.90;;;;;;4965347;28;20207;-58
2022/12/15 10:29:55;;;;;;;58.50;28.50;;;0.60;99.90;;;;;;4959885;28;20203;-58
2022/12/15 10:32:31;;;;;;;57.10;28.20;;;0.70;99.90;;;;;;4992959;28;20217;-58
2022/12/15 10:35:12;;;;;;;57.70;27.43;;;0.80;99.90;;;;;;4962356;28;20735;-58
2022/12/15 10:37:41;;;;;;;50.07;25.63;;;0.90;99.90;;;;;;4964252;28;20211;-58
2022/12/15 10:40:15;;;;;;;51.50;24.70;;;1.00;99.90;;;;;;4970744;28;20220;-58
2022/12/15 10:42:48;;;;;;;49.47;25.50;;;1.00;99.90;;;;;;4961212;28;20202;-58
2022/12/15 10:45:37;;;;;;;47.07;24.63;;;1.20;99.90;;;;;;4966331;28;20206;-58
2022/12/15 10:48:17;;;;;;;50.40;25.37;;;1.30;99.90;;;;;;4960888;28;20223;-58
2022/12/15 10:50:46;;;;;;;53.13;26.80;;;1.40;99.90;;;;;;4960788;28;20396;-58
2022/12/15 10:53:38;;;;;;;55.10;28.03;;;1.50;99.90;;;;;;4958112;28;20746;-58
2022/12/15 10:56:08;;;;;;;55.13;26.73;;;1.60;99.90;;;;;;4962328;28;20208;-58
2022/12/15 10:58:49;;;;;;;52.47;26.93;;;1.70;99.90;;;;;;4962050;28;20652;-59
2022/12/15 11:01:19;;;;;;;51.67;27.70;;;1.70;99.90;;;;;;4960127;28;20207;-58
2022/12/15 11:03:51;;;;;;;50.50;26.40;;;1.80;99.90;;;;;;4962545;28;20615;-59
2022/12/15 11:06:22;;;;;;;52.30;24.77;;;1.80;99.90;;;;;;4965639;28;20287;-58
2022/12/15 11:08:52;;;;;;;52.20;25.63;;;1.90;99.90;;;;;;4974716;28;20207;-59
2022/12/15 11:14:22;;;;;;;59.77;28.20;;;2.00;99.90;;;;;;4968154;28;20261;-59
2022/12/15 11:16:54;;;;;;;57.40;28.37;;;2.00;99.90;;;;;;4968305;28;20236;-58
2022/12/15 11:19:38;;;;;;;57.63;27.57;;;1.80;99.90;;;;;;4958858;28;20287;-58
2022/12/15 11:22:12;;;;;;;54.67;27.20;;;1.80;99.90;;;;;;4959974;28;20207;-58
2022/12/15 11:24:47;;;;;;;55.40;28.37;;;1.80;99.90;;;;;;4963523;28;20227;-58
2022/12/15 11:27:24;;;;;;;53.37;28.23;;;1.80;99.90;;;;;;4960827;28;20244;-58
2022/12/15 11:30:04;;;;;;;60.23;34.60;;;2.00;99.90;;;;;;4962604;28;20210;-58
2022/12/15 11:32:34;;;;;;;53.33;27.77;;;2.10;99.90;;;;;;4959537;28;20211;-58
2022/12/15 11:35:03;;;;;;;48.37;25.53;;;2.00;99.90;;;;;;4960470;28;20569;-58
2022/12/15 11:37:40;;;;;;;48.63;25.73;;;2.00;99.90;;;;;;4960658;28;20822;-59
2022/12/15 11:40:30;;;;;;;51.60;26.17;;;2.00;99.90;;;;;;4991743;28;20199;-58
2022/12/15 11:43:26;;;;;;;59.23;26.73;;;2.00;99.90;;;;;;4965944;28;20653;-58
2022/12/15 11:46:13;;;;;;;53.10;26.53;;;2.10;99.90;;;;;;4965924;28;20308;-58
2022/12/15 11:48:51;;;;;;;44.43;23.70;;;2.10;99.90;;;;;;4965021;28;20200;-58
2022/12/15 11:51:29;;;;;;;46.87;25.87;;;2.20;99.90;;;;;;4958160;28;20210;-58
2022/12/15 11:54:13;;;;;;;49.40;27.67;;;2.20;99.90;;;;;;4966750;28;20199;-58
2022/12/15 11:56:46;;;;;;;55.33;28.37;;;2.30;99.90;;;;;;4962798;28;20199;-58
2022/12/15 11:59:44;;;;;;;60.03;32.23;;;2.30;99.90;;;;;;4965161;28;20203;-57
2022/12/15 12:02:35;;;;;;;60.93;32.13;;;2.20;99.90;;;;;;4967472;28;20591;-58
2022/12/15 12:05:31;;;;;;;55.53;30.03;;;2.10;99.90;;;;;;4968724;28;20191;-58
2022/12/15 12:08:05;;;;;;;61.03;31.13;;;2.00;99.90;;;;;;4963059;28;20199;-59
2022/12/15 12:10:39;;;;;;;63.47;31.73;;;2.00;99.90;;;;;;4976901;28;20207;-58
2022/12/15 12:13:16;;;;;;;67.00;32.73;;;2.00;99.90;;;;;;4967192;28;20226;-58
2022/12/15 12:15:54;;;;;;;61.47;32.47;;;2.10;99.90;;;;;;4965463;28;20764;-58
2022/12/15 12:18:27;;;;;;;63.87;32.97;;;2.20;99.90;;;;;;4962706;28;20199;-58
2022/12/15 12:21:03;;;;;;;65.27;33.30;;;2.30;99.90;;;;;;4969908;28;20228;-58
2022/12/15 12:23:39;;;;;;;66.17;32.73;;;2.30;99.90;;;;;;4966101;28;20294;-58
2022/12/15 12:26:14;;;;;;;63.27;33.63;;;2.40;99.90;;;;;;4966603;28;20299;-58
2022/12/15 12:28:47;;;;;;;70.50;33.93;;;2.40;99.90;;;;;;4966418;28;20634;-59
2022/12/15 12:31:27;;;;;;;57.73;30.03;;;2.50;99.90;;;;;;4970407;28;20289;-58
2022/12/15 12:34:05;;;;;;;56.10;29.63;;;2.60;99.90;;;;;;4967380;28;20208;-59
2022/12/15 12:36:34;;;;;;;61.20;30.43;;;2.70;99.90;;;;;;4994733;28;20210;-59
2022/12/15 12:39:03;;;;;;;61.90;29.97;;;2.80;99.90;;;;;;4963870;28;20195;-58
2022/12/15 12:41:41;;;;;;;59.97;29.63;;;2.90;99.90;;;;;;4966373;28;20203;-59
2022/12/15 12:44:18;;;;;;;58.90;29.97;;;2.90;99.90;;;;;;4967717;28;20223;-59
2022/12/15 12:46:50;;;;;;;58.13;30.07;;;3.00;99.90;;;;;;4964044;28;20195;-58
2022/12/15 12:49:27;;;;;;;62.50;32.47;;;3.00;99.90;;;;;;4961769;28;20199;-58
2022/12/15 12:51:58;;;;;;;59.50;30.07;;;2.90;99.90;;;;;;4961761;28;20199;-58
2022/12/15 12:54:41;;;;;;;56.47;28.83;;;3.00;99.90;;;;;;4962260;28;20234;-58
2022/12/15 12:57:36;;;;;;;49.43;27.57;;;2.80;99.90;;;;;;4972777;28;20610;-58
2022/12/15 13:00:16;;;;;;;52.03;28.83;;;2.80;99.90;;;;;;4967011;28;20201;-59
2022/12/15 13:03:09;;;;;;;54.80;27.93;;;2.80;99.90;;;;;;4965302;28;20214;-59
2022/12/15 13:05:41;;;;;;;56.13;26.67;;;2.80;99.90;;;;;;4958377;28;20200;-58
2022/12/15 13:08:49;;;;;;;46.00;24.73;;;2.70;99.90;;;;;;4965393;28;20253;-58
2022/12/15 13:11:59;;;;;;;45.43;24.50;;;2.70;99.90;;;;;;4963263;28;20225;-58
2022/12/15 13:14:44;;;;;;;42.27;23.37;;;2.70;99.90;;;;;;4961654;28;20224;-57
2022/12/15 13:17:29;;;;;;;45.20;23.70;;;2.70;99.90;;;;;;4967207;28;20257;-59
2022/12/15 13:20:28;;;;;;;46.47;24.53;;;2.70;99.90;;;;;;4965499;28;20202;-58
2022/12/15 13:23:32;;;;;;;58.80;28.07;;;2.90;99.90;;;;;;4962660;28;20253;-59
2022/12/15 13:26:17;;;;;;;47.17;25.90;;;2.90;99.90;;;;;;4966502;28;20230;-58
2022/12/15 13:28:51;;;;;;;49.90;25.07;;;3.00;99.90;;;;;;4966655;28;20204;-58
2022/12/15 13:31:38;;;;;;;59.47;29.87;;;2.90;99.90;;;;;;4967235;28;20551;-58
2022/12/15 13:34:17;;;;;;;59.07;29.13;;;3.00;99.90;;;;;;4963648;28;20268;-58
2022/12/15 13:36:57;;;;;;;57.30;29.20;;;2.90;99.90;;;;;;4969086;28;20222;-59
2022/12/15 13:39:35;;;;;;;49.00;27.00;;;2.90;99.90;;;;;;4960844;28;20188;-58
2022/12/15 13:42:25;;;;;;;52.70;26.43;;;2.90;99.90;;;;;;4959359;28;20239;-58
2022/12/15 13:45:41;;;;;;;49.20;24.10;;;2.90;99.90;;;;;;4963042;28;20669;-58
2022/12/15 13:48:30;;;;;;;45.87;24.67;;;2.90;99.90;;;;;;4964008;28;20234;-58
2022/12/15 13:51:05;;;;;;;46.20;24.07;;;2.90;99.90;;;;;;4969174;28;20199;-58
2022/12/15 13:53:41;;;;;;;44.83;24.87;;;3.00;99.90;;;;;;4938764;28;20207;-59
2022/12/15 13:56:48;;;;;;;48.67;24.17;;;3.00;99.90;;;;;;4964006;28;20203;-58
2022/12/15 13:59:29;;;;;;;47.03;25.00;;;3.00;99.90;;;;;;4973112;28;20270;-58
2022/12/15 14:01:58;;;;;;;46.57;24.60;;;3.00;99.90;;;;;;4961885;28;20214;-58
2022/12/15 14:04:27;;;;;;;43.93;25.57;;;3.00;99.90;;;;;;4956988;28;20212;-58
2022/12/15 14:06:57;;;;;;;45.93;24.83;;;3.00;99.90;;;;;;4962735;28;20864;-59
2022/12/15 14:09:30;;;;;;;47.33;24.63;;;3.00;99.90;;;;;;4991361;28;20291;-58
2022/12/15 14:12:03;;;;;;;48.57;26.63;;;2.90;99.90;;;;;;4957998;28;20218;-58
2022/12/15 14:14:34;;;;;;;49.30;26.03;;;2.90;99.90;;;;;;4965260;28;20673;-58
2022/12/15 14:17:06;;;;;;;52.43;25.90;;;3.00;99.90;;;;;;4966181;28;20720;-58
2022/12/15 14:19:40;;;;;;;47.37;25.40;;;3.00;99.90;;;;;;4996559;28;20198;-58
2022/12/15 14:22:21;;;;;;;45.87;25.97;;;2.90;99.90;;;;;;4964876;28;20535;-58
2022/12/15 14:25:01;;;;;;;54.57;27.40;;;2.90;99.90;;;;;;4947422;28;20231;-58
2022/12/15 14:27:33;;;;;;;52.13;26.70;;;2.90;99.90;;;;;;4967454;28;20207;-58
2022/12/15 14:30:13;;;;;;;48.67;26.43;;;2.90;99.90;;;;;;4967853;28;20667;-58
2022/12/15 14:32:43;;;;;;;51.00;27.50;;;2.90;99.90;;;;;;4999155;28;20288;-59
2022/12/15 14:35:19;;;;;;;53.57;27.13;;;2.80;99.90;;;;;;4968525;28;20219;-58
2022/12/15 14:37:47;;;;;;;54.23;28.40;;;2.80;99.90;;;;;;4971059;28;20656;-57
2022/12/15 14:40:18;;;;;;;53.70;27.27;;;2.70;99.90;;;;;;4965895;28;20709;-57
2022/12/15 14:42:55;;;;;;;55.70;27.17;;;2.70;99.90;;;;;;4957663;28;20274;-58
2022/12/15 14:45:27;;;;;;;58.87;28.67;;;2.60;99.90;;;;;;4965515;28;20202;-58
2022/12/15 14:47:59;;;;;;;55.93;28.73;;;2.60;99.90;;;;;;4959800;28;20242;-58
2022/12/15 14:50:49;;;;;;;58.10;29.10;;;2.50;99.90;;;;;;4956070;28;20270;-57
2022/12/15 14:53:20;;;;;;;55.37;28.93;;;2.30;99.90;;;;;;4957544;28;20207;-58
2022/12/15 14:55:49;;;;;;;54.23;29.10;;;2.20;99.90;;;;;;4978592;28;20516;-58
2022/12/15 14:58:34;;;;;;;54.13;28.57;;;2.10;99.90;;;;;;4959902;28;20261;-58
2022/12/15 15:01:19;;;;;;;53.87;29.40;;;2.00;99.90;;;;;;4983378;28;20219;-58
2022/12/15 15:03:57;;;;;;;61.47;30.27;;;1.90;99.90;;;;;;4961149;28;20194;-58
2022/12/15 15:06:34;;;;;;;59.70;29.90;;;1.80;99.90;;;;;;4961308;28;20203;-58
2022/12/15 15:09:21;;;;;;;66.20;32.60;;;1.70;99.90;;;;;;4958873;28;20319;-58
2022/12/15 15:11:53;;;;;;;62.27;31.23;;;1.60;99.90;;;;;;4956755;28;20206;-58
2022/12/15 15:14:26;;;;;;;63.77;30.07;;;1.50;99.90;;;;;;4960451;28;20215;-58
2022/12/15 15:17:03;;;;;;;61.40;30.67;;;1.40;99.90;;;;;;4966123;28;20238;-58
2022/12/15 15:19:33;;;;;;;59.50;30.07;;;1.20;99.90;;;;;;4959062;28;20235;-57
2022/12/15 15:22:21;;;;;;;65.03;32.07;;;1.10;99.90;;;;;;4960861;28;20204;-58
2022/12/15 15:24:51;;;;;;;57.30;30.80;;;0.90;99.90;;;;;;4961040;28;20211;-57
2022/12/15 15:27:25;;;;;;;64.90;32.80;;;0.80;99.90;;;;;;4968613;28;20191;-57
2022/12/15 15:30:13;;;;;;;64.83;32.37;;;0.70;99.90;;;;;;4956522;28;20246;-57
2022/12/15 15:32:54;;;;;;;66.23;33.07;;;0.50;99.90;;;;;;4965383;28;20195;-58
2022/12/15 15:35:25;;;;;;;70.30;33.00;;;0.40;99.90;;;;;;4970866;28;20305;-57